Royal Oaks, California
Current Conditions -  °F | °C
As of 6:53 AM on Tuesday 21 Oct 2014 (Local Time) from KWVI Reporting Station
Clear Clear  
Wind Chill: 50°   Ceiling: Unl
Heat Index: 50°   Visibility: 10mi
Dew Point: 46°   Wind: 3mph
Humidity: 86%   Direction: 310°NW
Pressure: 30.08"   Gusts: NA
Location:  36.9274°N, 121.747°W
Report Text: KWVI 211353Z AUTO 31003KT 10SM CLR 10/08 A3008 RMK AO2 SLP184 T01000078
Loading
Personal Weather Stations






























Interactive Weather Map
Tropical Storm Tracking
New forecast layout! Learn more

10-Day Weather Forecast

Advertisements
Track Severe Weather on mobile